Latest Weather Observations for Cape Willoughby

IDS60801

Issued at 6:01 pm CDT Sunday 14 February 2016 (issued every 30 minutes, with the page automatically refreshed every 10 minutes)

About weather observations | Map of weather stations | Latest weather observations for SA | Other Formats
Station Details ID: 022803 Name: CAPE WILLOUGHBY Lat: -35.84 Lon: 138.13 Height: 55.0 m
Data from the previous 72 hours. | See also: Recent months at Cape Willoughby
Date/Time
CDT
Temp
°C
App
Temp
°C
Dew
Point
Rel
Hum
%
Delta-T
°C
Wind Press
QNH
hPa
Press
MSL
hPa
Rain
since 9 am
mm
Dir
 
Spd
km/h
Gust
km/h
Spd
kts
Gust
kts
14/07:00am 16.9 14.1 13.2 79 2.1 SW 20 30 11 16 1014.7 1014.6 -
14/06:30am 15.8 13.5 12.9 83 1.6 WSW 17 20 9 11 1014.3 1014.2 -
14/06:00am 15.8 13.7 13.5 86 1.3 WSW 17 22 9 12 1014.1 1014.0 -
14/05:30am 15.7 13.6 13.5 87 1.2 W 17 22 9 12 1013.7 1013.6 -
14/05:00am 15.4 13.2 13.4 88 1.1 W 17 20 9 11 1013.2 1013.1 -
14/04:30am 15.2 13.3 13.1 87 1.2 W 15 20 8 11 1013.1 1013.0 -
14/04:00am 15.7 13.6 13.7 88 1.1 W 17 20 9 11 1013.1 1013.0 0.0
14/03:30am 15.8 13.8 13.8 88 1.1 W 17 20 9 11 1013.1 1013.0 0.0
14/03:00am 15.9 13.8 13.7 87 1.2 W 17 20 9 11 1013.3 1013.2 0.0
14/02:30am 16.3 14.7 13.8 85 1.4 W 15 19 8 10 1013.4 1013.3 0.0
14/02:00am 16.3 14.5 13.2 82 1.7 W 15 19 8 10 1013.6 1013.5 0.0
14/01:30am 16.8 15.7 13.1 79 2.1 WSW 11 19 6 10 1013.8 1013.7 0.0
14/01:00am 16.7 15.6 13.0 79 2.1 WSW 11 15 6 8 1014.1 1014.0 0.0
14/12:30am 16.6 15.0 12.8 78 2.1 SW 13 17 7 9 1014.2 1014.1 0.0
14/12:00am 17.4 15.9 13.1 76 2.4 SW 13 19 7 10 1014.3 1014.2 0.0
 
Date/Time
CDT
Temp
°C
App
Temp
°C
Dew
Point
Rel
Hum
%
Delta-T
°C
Wind Press
QNH
hPa
Press
MSL
hPa
Rain
since 9 am
mm
Dir
 
Spd
km/h
Gust
km/h
Spd
kts
Gust
kts
13/11:30pm 17.9 15.2 13.4 75 2.5 SW 20 24 11 13 1014.5 1014.4 0.0
13/11:00pm 18.0 15.2 13.3 74 2.7 SW 20 24 11 13 1014.7 1014.6 0.0
13/10:30pm 18.0 14.7 12.7 71 3.0 SSW 22 26 12 14 1014.8 1014.7 0.0
13/10:00pm 18.3 14.3 13.0 71 3.0 SSW 26 32 14 17 1014.6 1014.5 0.0
13/09:30pm 18.5 14.5 12.9 70 3.2 SSW 26 32 14 17 1014.4 1014.3 0.0
13/09:00pm 18.6 15.5 13.5 72 2.9 SSW 22 28 12 15 1014.1 1014.0 0.0
13/08:30pm 18.7 15.1 14.2 75 2.6 SSW 26 33 14 18 1013.9 1013.8 0.0
13/08:00pm 18.9 15.6 15.0 78 2.3 SSW 26 32 14 17 1013.6 1013.5 0.0
13/07:30pm 19.2 15.3 14.5 74 2.7 SW 28 35 15 19 1013.3 1013.2 0.0
13/07:00pm 19.4 17.1 15.7 79 2.2 SSW 22 28 12 15 1013.0 1012.9 0.0
13/06:30pm 19.8 17.5 15.7 77 2.4 SW 22 28 12 15 1012.7 1012.6 0.0
13/06:00pm 19.9 16.6 14.9 73 2.9 SSW 26 32 14 17 1012.7 1012.6 0.0
13/05:30pm 20.6 19.8 16.2 76 2.7 SSW 15 22 8 12 1012.5 1012.4 0.0
13/05:00pm 20.3 19.3 16.5 79 2.3 SSW 17 22 9 12 1012.7 1012.6 0.0
13/04:30pm 20.3 19.3 16.5 79 2.3 SSW 17 26 9 14 1012.9 1012.8 0.0
13/04:00pm 20.1 18.4 16.3 79 2.3 SSW 20 28 11 15 1012.8 1012.7 0.0
13/03:30pm 19.8 17.5 16.6 82 1.9 SSW 24 32 13 17 1012.6 1012.5 0.0
13/03:00pm 19.7 16.3 16.7 83 1.8 SSW 30 35 16 19 1012.6 1012.5 0.0
13/02:30pm 20.3 17.3 17.7 85 1.6 SSW 30 39 16 21 1012.6 1012.5 0.0
13/02:00pm 20.8 20.2 17.6 82 2.0 SSW 17 28 9 15 1012.3 1012.2 0.0
13/01:30pm 21.3 20.4 18.3 83 1.9 SSW 20 28 11 15 1012.6 1012.5 0.0
13/01:00pm 20.7 19.9 17.1 80 2.2 SSW 17 24 9 13 1012.6 1012.5 0.0
13/12:30pm 20.7 21.3 16.9 79 2.3 SSW 9 17 5 9 1012.7 1012.6 0.0
13/12:00pm 20.8 19.8 16.6 77 2.5 SW 17 20 9 11 1012.7 1012.6 0.0
13/11:30am 20.7 20.5 16.7 78 2.4 SSW 13 20 7 11 1012.7 1012.6 0.0
13/11:00am 20.5 21.4 16.7 79 2.3 S 7 11 4 6 1012.7 1012.6 0.0
13/10:30am 20.6 21.6 16.8 79 2.3 WSW 7 13 4 7 1012.6 1012.5 0.0
13/10:00am 19.6 19.7 16.4 82 1.9 WSW 11 17 6 9 1012.7 1012.6 0.0
13/09:30am 20.3 20.2 16.9 81 2.1 SW 13 19 7 10 1012.4 1012.3 0.0
13/09:00am 19.6 20.0 16.4 82 1.9 SW 9 17 5 9 1012.4 1012.3 -
13/08:30am 18.2 - 15.6 85 1.5 - - - - - 1012.1 1012.0 -
13/08:00am 17.4 16.9 14.9 85 1.5 WNW 11 13 6 7 1012.0 1011.9 -
13/07:30am 16.5 16.3 13.6 83 1.6 NW 7 11 4 6 1011.5 1011.4 -
13/07:00am 16.6 15.8 12.9 79 2.1 WNW 9 11 5 6 1011.1 1010.9 -
13/06:30am 17.3 15.3 12.8 75 2.5 W 15 20 8 11 1011.3 1011.2 -
13/06:00am 17.5 15.3 12.2 71 2.9 W 15 20 8 11 1010.9 1010.7 -
13/05:30am 16.8 14.7 12.5 76 2.4 WNW 15 19 8 10 1010.7 1010.5 -
13/05:00am 17.5 17.0 13.8 79 2.1 WSW 9 13 5 7 1010.6 1010.4 -
13/04:30am 18.4 17.4 14.5 78 2.3 WSW 13 20 7 11 1010.5 1010.3 -
13/04:00am 18.3 19.6 15.2 82 1.8 WNW 2 9 1 5 1010.6 1010.4 -
13/03:30am 18.1 18.0 14.0 77 2.4 W 7 9 4 5 1010.7 1010.5 -
13/03:00am 18.2 18.0 13.5 74 2.7 NNE 7 13 4 7 1010.4 1010.2 0.0
13/02:30am 18.0 17.8 13.5 75 2.6 NW 7 11 4 6 1011.1 1010.9 -
13/02:00am 18.8 18.5 14.3 75 2.6 NW 9 15 5 8 1011.1 1010.9 -
13/01:30am 18.9 18.7 15.8 82 1.8 NNW 11 20 6 11 1011.0 1010.8 -
13/01:00am 18.1 17.7 16.3 89 1.1 N 13 20 7 11 1011.0 1010.8 -
13/12:30am 17.9 19.0 16.6 92 0.8 NNW 6 7 3 4 1011.7 1011.6 -
13/12:00am 17.8 18.3 16.5 92 0.8 N 9 11 5 6 1011.6 1011.5 -
 
Date/Time
CDT
Temp
°C
App
Temp
°C
Dew
Point
Rel
Hum
%
Delta-T
°C
Wind Press
QNH
hPa
Press
MSL
hPa
Rain
since 9 am
mm
Dir
 
Spd
km/h
Gust
km/h
Spd
kts
Gust
kts
12/11:30pm 17.7 18.1 16.2 91 0.9 N 9 13 5 7 1011.7 1011.6 -
12/11:00pm 17.5 18.2 15.7 89 1.1 NNE 6 7 3 4 1012.2 1012.1 -
12/10:30pm 18.0 19.3 16.2 89 1.1 NNE 4 6 2 3 1012.3 1012.2 -
12/10:00pm 18.1 20.1 15.9 87 1.3 CALM 0 0 0 0 1012.2 1012.1 -
12/09:30pm 18.2 20.1 15.8 86 1.4 CALM 0 0 0 0 1012.3 1012.2 -
12/09:00pm 18.3 20.3 15.9 86 1.4 CALM 0 0 0 0 1012.1 1012.0 0.0
12/08:30pm 18.1 18.8 15.7 86 1.4 NNE 6 7 3 4 1012.0 1011.9 -
12/08:00pm 18.3 18.8 15.6 84 1.6 NE 7 11 4 6 1012.0 1011.9 -
12/07:30pm 18.7 18.8 15.6 82 1.8 NE 9 11 5 6 1012.1 1012.0 -
12/07:00pm 19.3 19.9 15.8 80 2.1 SSE 7 9 4 5 1012.6 1012.5 -
12/06:30pm 18.9 18.0 15.8 82 1.8 S 15 19 8 10 1012.5 1012.4 -
12/06:00pm 19.0 17.4 15.9 82 1.8 S 19 24 10 13 1012.6 1012.5 -
12/05:30pm 19.2 17.0 15.9 81 2.0 S 22 28 12 15 1012.7 1012.6 -
12/05:00pm 19.7 18.1 16.0 79 2.2 S 19 22 10 12 1012.7 1012.6 -
12/04:30pm 19.7 19.5 15.8 78 2.3 SSE 11 13 6 7 1012.9 1012.8 -
12/04:00pm 19.8 19.3 15.9 78 2.3 SSE 13 15 7 8 1013.0 1012.9 -
12/03:30pm 19.6 19.4 15.7 78 2.3 SSE 11 13 6 7 1013.3 1013.2 -
12/03:00pm 20.0 19.5 15.0 73 2.9 SSE 11 13 6 7 1013.5 1013.4 -
12/02:30pm 20.6 21.0 16.2 76 2.6 SE 9 11 5 6 1013.7 1013.6 0.0
12/02:00pm 20.6 20.7 15.6 73 3.0 SE 9 11 5 6 1014.0 1013.9 0.0
12/01:30pm 20.6 21.0 16.2 76 2.6 SE 9 11 5 6 1014.2 1014.1 0.0
12/01:00pm 20.2 20.3 15.6 75 2.7 E 9 11 5 6 1014.5 1014.4 0.0
12/12:30pm 19.7 19.8 15.4 76 2.5 E 9 11 5 6 1014.9 1014.8 0.0
12/12:00pm 19.6 19.5 15.0 75 2.7 ESE 9 11 5 6 1015.1 1015.0 0.0
12/11:30am 19.4 19.4 15.1 76 2.5 ESE 9 11 5 6 1015.5 1015.4 0.0
12/11:00am 19.9 20.4 15.5 76 2.6 ESE 7 11 4 6 1015.8 1015.7 0.0
12/10:30am 19.6 19.8 15.7 78 2.3 ESE 9 13 5 7 1016.0 1015.9 0.0
12/10:00am 19.4 18.6 15.1 76 2.5 ESE 13 15 7 8 1016.1 1016.0 0.0
12/09:30am 19.1 18.8 15.4 79 2.2 E 11 15 6 8 1016.3 1016.2 0.0
12/09:00am 18.6 17.6 15.5 82 1.8 E 15 17 8 9 1016.4 1016.3 -
12/08:30am 18.0 16.1 15.1 83 1.7 E 19 22 10 12 1016.3 1016.2 -
12/08:00am 18.0 16.1 15.1 83 1.7 E 19 22 10 12 1016.3 1016.2 -
12/07:00am 17.1 14.1 14.7 86 1.4 ESE 24 28 13 15 1015.8 1015.7 0.0
12/06:30am 17.2 13.9 15.0 87 1.3 ESE 26 33 14 18 1015.6 1015.5 0.0
12/06:00am 17.3 13.6 15.1 87 1.3 ESE 28 33 15 18 1015.4 1015.3 0.0
12/05:30am 17.2 13.1 14.8 86 1.4 SE 30 35 16 19 1015.4 1015.3 0.0
12/05:00am 17.3 13.3 15.1 87 1.3 SE 30 35 16 19 1015.5 1015.4 0.0
12/04:30am 17.4 13.0 15.2 87 1.3 SE 32 39 17 21 1015.4 1015.3 0.0
12/04:00am 17.6 13.0 15.0 85 1.5 SE 33 39 18 21 1015.5 1015.4 0.0
12/03:30am 17.4 12.9 15.0 86 1.4 SE 32 37 17 20 1015.5 1015.4 0.0
12/03:00am 17.5 13.5 15.3 87 1.3 SE 30 37 16 20 1015.9 1015.8 0.0
12/02:30am 17.5 13.5 15.1 86 1.4 SE 30 35 16 19 1016.1 1016.0 0.0
12/02:00am 17.6 13.6 15.2 86 1.4 SE 30 35 16 19 1016.5 1016.4 0.0
12/01:30am 17.6 14.0 15.2 86 1.4 SE 28 33 15 18 1016.8 1016.7 0.0
12/01:00am 17.7 14.2 15.5 87 1.3 SE 28 32 15 17 1016.8 1016.7 0.0
12/12:30am 17.9 13.7 15.7 87 1.3 SE 32 39 17 21 1017.0 1016.9 0.0
12/12:00am 17.9 13.0 15.3 85 1.5 SE 35 39 19 21 1017.1 1017.0 0.0
 
Date/Time
CDT
Temp
°C
App
Temp
°C
Dew
Point
Rel
Hum
%
Delta-T
°C
Wind Press
QNH
hPa
Press
MSL
hPa
Rain
since 9 am
mm
Dir
 
Spd
km/h
Gust
km/h
Spd
kts
Gust
kts
11/11:30pm 18.0 13.5 15.4 85 1.5 SSE 33 41 18 22 1017.1 1017.0 0.0
11/11:00pm 18.1 13.2 15.4 84 1.6 SSE 35 41 19 22 1017.3 1017.2 0.0
11/10:30pm 18.2 14.4 15.8 86 1.4 SSE 30 35 16 19 1017.7 1017.6 0.0
11/10:00pm 18.4 15.0 15.8 85 1.5 SSE 28 33 15 18 1017.6 1017.5 0.0
11/09:30pm 18.2 14.6 15.3 83 1.7 SSE 28 33 15 18 1017.6 1017.5 0.0
11/09:00pm 18.3 14.4 15.4 83 1.7 SSE 30 35 16 19 1017.4 1017.3 0.0
11/08:30pm 18.4 14.5 15.6 84 1.7 SSE 30 39 16 21 1017.3 1017.2 0.0
11/08:00pm 18.4 15.0 15.8 85 1.5 SSE 28 33 15 18 1016.9 1016.8 0.0
11/07:30pm 18.6 14.4 15.8 84 1.7 SSE 32 39 17 21 1016.9 1016.8 0.0
11/07:00pm 18.7 15.3 15.9 84 1.7 SSE 28 33 15 18 1016.4 1016.3 0.0
11/06:30pm 18.8 15.0 15.7 82 1.8 SSE 30 37 16 20 1016.3 1016.2 0.0

Other Formats:

Comma delimited format used in spreadsheet applications
http://www.bom.gov.au/fwo/IDS60801/IDS60801.94822.axf

JavaScript Object Notation format (JSON) in row-major order
http://www.bom.gov.au/fwo/IDS60801/IDS60801.94822.json